createdAt,value
2018-05-31T00:03:34.474Z,12.07
2018-05-31T00:09:38.843Z,12.60
2018-05-31T00:15:43.253Z,10.67
2018-05-31T00:21:48.414Z,11.77
2018-05-31T00:27:53.472Z,10.70
2018-05-31T00:33:58.679Z,10.33
2018-05-31T00:40:03.181Z,11.30
2018-05-31T00:46:07.576Z,12.30
2018-05-31T00:52:12.102Z,11.63
2018-05-31T00:58:16.484Z,10.20
2018-05-31T01:04:20.856Z,14.03
2018-05-31T01:10:25.354Z,12.40
2018-05-31T01:16:29.766Z,12.83
2018-05-31T01:22:34.355Z,11.83
2018-05-31T01:28:38.855Z,11.60
2018-05-31T01:34:44.042Z,12.20
2018-05-31T01:40:48.435Z,11.30
2018-05-31T01:46:52.968Z,12.97
2018-05-31T01:52:57.329Z,10.63
2018-05-31T01:59:01.704Z,12.50
2018-05-31T02:05:06.189Z,11.50
2018-05-31T02:11:10.752Z,10.47
2018-05-31T02:17:15.201Z,10.60
2018-05-31T02:23:20.553Z,10.87
2018-05-31T02:29:25.480Z,13.40
2018-05-31T02:35:30.625Z,12.37
2018-05-31T02:41:35.036Z,12.70
2018-05-31T02:47:39.787Z,10.47
2018-05-31T02:53:44.784Z,13.80
2018-05-31T02:59:50.820Z,12.80
2018-05-31T03:05:55.410Z,12.30
2018-05-31T03:11:59.851Z,11.60
2018-05-31T03:18:05.075Z,9.77
2018-05-31T03:24:09.562Z,10.97
2018-05-31T03:30:14.116Z,10.30
2018-05-31T03:36:18.507Z,12.23
2018-05-31T03:42:23.021Z,11.07
2018-05-31T03:48:27.588Z,13.57
2018-05-31T03:54:32.191Z,15.27
2018-05-31T04:00:36.573Z,12.23
2018-05-31T04:06:40.993Z,13.30
2018-05-31T04:12:46.156Z,12.50
2018-05-31T04:18:50.539Z,14.90
2018-05-31T04:24:55.579Z,13.27
2018-05-31T04:31:00.075Z,11.57
2018-05-31T04:37:04.526Z,12.00
2018-05-31T04:43:09.654Z,12.00
2018-05-31T04:49:14.028Z,13.00
2018-05-31T04:55:18.403Z,12.93
2018-05-31T05:01:23.993Z,12.60
2018-05-31T05:07:28.701Z,12.13
2018-05-31T05:13:33.091Z,14.53
2018-05-31T05:19:37.953Z,14.67
2018-05-31T05:25:42.316Z,13.73
2018-05-31T05:31:46.740Z,15.50
2018-05-31T05:37:52.541Z,14.43
2018-05-31T05:43:56.906Z,13.60
2018-05-31T05:50:01.278Z,14.00
2018-05-31T05:56:05.689Z,15.07
2018-05-31T06:02:10.963Z,15.00
2018-05-31T06:08:16.116Z,14.70
2018-05-31T06:14:20.764Z,14.63
2018-05-31T06:20:25.940Z,14.17
2018-05-31T06:26:30.623Z,15.33
2018-05-31T06:32:34.785Z,13.53
2018-05-31T06:38:39.160Z,11.87
2018-05-31T06:44:43.530Z,14.43
2018-05-31T06:50:47.907Z,13.07
2018-05-31T06:56:52.996Z,11.97
2018-05-31T07:02:57.380Z,11.90
2018-05-31T07:09:01.709Z,11.80
2018-05-31T07:15:06.125Z,12.63
2018-05-31T07:21:10.563Z,11.80
2018-05-31T07:27:14.992Z,12.47
2018-05-31T07:33:20.527Z,11.00
2018-05-31T07:39:26.594Z,10.40
2018-05-31T07:45:30.941Z,10.37
2018-05-31T07:51:35.325Z,11.50
2018-05-31T07:57:39.678Z,10.70
2018-05-31T08:03:44.479Z,10.70
2018-05-31T08:09:48.828Z,12.80
2018-05-31T08:15:53.341Z,11.20
2018-05-31T08:21:57.734Z,10.53
2018-05-31T08:28:02.048Z,9.80
2018-05-31T08:34:06.469Z,10.10
2018-05-31T08:40:10.839Z,9.70
2018-05-31T08:46:15.190Z,10.53
2018-05-31T08:52:19.574Z,10.10
2018-05-31T08:58:24.101Z,11.00
2018-05-31T09:04:29.221Z,9.47
2018-05-31T09:10:33.693Z,10.63
2018-05-31T09:16:38.054Z,11.10
2018-05-31T09:22:43.136Z,10.07
2018-05-31T09:28:47.520Z,12.87
2018-05-31T09:34:53.139Z,10.70
2018-05-31T09:40:57.678Z,10.10
2018-05-31T09:47:02.037Z,10.80
2018-05-31T09:53:06.393Z,9.90
2018-05-31T09:59:10.733Z,10.60
2018-05-31T10:05:15.881Z,8.50
2018-05-31T10:11:20.260Z,7.70
2018-05-31T10:17:24.769Z,7.83
2018-05-31T10:23:29.921Z,12.73
2018-05-31T10:29:34.259Z,8.40
2018-05-31T10:35:38.828Z,8.90
2018-05-31T10:41:43.220Z,8.40
2018-05-31T10:47:47.569Z,8.20
2018-05-31T10:53:52.865Z,8.33
2018-05-31T10:59:57.311Z,8.43
2018-05-31T11:06:01.654Z,8.13
2018-05-31T11:12:05.992Z,9.70
2018-05-31T11:18:11.119Z,8.70
2018-05-31T11:24:15.473Z,8.67
2018-05-31T11:30:20.535Z,9.27
2018-05-31T11:36:24.953Z,8.83
2018-05-31T11:42:29.303Z,9.73
2018-05-31T11:48:34.385Z,8.27
2018-05-31T11:54:38.764Z,7.53
2018-05-31T12:00:43.083Z,8.40
2018-05-31T12:06:47.456Z,8.30
2018-05-31T12:12:52.830Z,7.60
2018-05-31T12:18:57.337Z,7.50
2018-05-31T12:25:01.686Z,6.13
2018-05-31T12:31:06.032Z,7.13
2018-05-31T12:37:10.377Z,6.80
2018-05-31T12:43:14.728Z,6.87
2018-05-31T12:49:19.124Z,6.70
2018-05-31T12:55:23.598Z,8.00
2018-05-31T13:01:27.961Z,8.63
2018-05-31T13:07:32.271Z,7.57
2018-05-31T13:13:37.506Z,6.93
2018-05-31T13:19:41.858Z,6.93
2018-05-31T13:25:46.997Z,7.30
2018-05-31T13:31:51.783Z,10.87
2018-05-31T13:37:56.130Z,9.50
2018-05-31T13:44:00.491Z,8.33
2018-05-31T13:50:05.629Z,7.27
2018-05-31T13:56:09.969Z,9.10
2018-05-31T14:02:14.323Z,9.20
2018-05-31T14:08:19.441Z,8.40
2018-05-31T14:14:23.810Z,8.90
2018-05-31T14:20:28.172Z,9.03
2018-05-31T14:26:33.294Z,10.40
2018-05-31T14:32:37.657Z,9.93
2018-05-31T14:38:42.026Z,11.70
2018-05-31T14:44:46.375Z,9.80
2018-05-31T14:50:51.496Z,10.20
2018-05-31T14:56:55.864Z,10.83
2018-05-31T15:03:00.221Z,10.17
2018-05-31T15:09:07.999Z,11.30
2018-05-31T15:15:12.341Z,11.47
2018-05-31T15:21:16.838Z,12.80
2018-05-31T15:27:21.253Z,12.70
2018-05-31T15:33:25.689Z,13.63
2018-05-31T15:39:30.806Z,12.53
2018-05-31T15:45:35.161Z,12.40
2018-05-31T15:51:40.291Z,13.10
2018-05-31T15:57:44.651Z,11.60
2018-05-31T16:03:48.961Z,9.07
2018-05-31T16:09:53.395Z,8.90
2018-05-31T16:15:57.761Z,8.80
2018-05-31T16:22:02.863Z,8.07
2018-05-31T16:28:07.224Z,8.27
2018-05-31T16:34:11.567Z,8.90
2018-05-31T16:40:15.912Z,8.37
2018-05-31T16:46:20.254Z,8.37
2018-05-31T16:52:24.625Z,8.20
2018-05-31T16:58:28.955Z,8.00
2018-05-31T17:04:33.314Z,8.30
2018-05-31T17:10:37.657Z,8.23
2018-05-31T17:16:42.026Z,8.00
2018-05-31T17:22:47.119Z,7.43
2018-05-31T17:28:51.472Z,8.40
2018-05-31T17:34:56.577Z,8.87
2018-05-31T17:41:00.923Z,8.50
2018-05-31T17:47:05.284Z,8.43
2018-05-31T17:53:10.442Z,9.07
2018-05-31T17:59:14.771Z,7.77
2018-05-31T18:05:19.154Z,7.60
2018-05-31T18:11:24.305Z,8.73
2018-05-31T18:17:28.645Z,8.53
2018-05-31T18:23:33.006Z,8.03
2018-05-31T18:29:38.107Z,8.17
2018-05-31T18:35:42.453Z,8.37
2018-05-31T18:41:47.567Z,8.80
2018-05-31T18:47:52.874Z,9.30
2018-05-31T18:53:57.284Z,8.80
2018-05-31T19:00:01.658Z,9.50
2018-05-31T19:06:06.879Z,9.47
2018-05-31T19:12:11.236Z,10.07
2018-05-31T19:18:21.442Z,9.97
2018-05-31T19:24:32.170Z,10.13
2018-05-31T19:30:41.984Z,10.57
2018-05-31T19:36:53.359Z,10.80
2018-05-31T19:43:03.463Z,10.60
2018-05-31T19:49:08.631Z,9.83
2018-05-31T19:55:12.973Z,11.07
2018-05-31T20:01:23.177Z,10.70
2018-05-31T20:07:27.580Z,11.27
2018-05-31T20:13:31.929Z,10.43
2018-05-31T20:19:36.289Z,10.57
2018-05-31T20:25:40.656Z,11.27
2018-05-31T20:31:45.366Z,11.47
2018-05-31T20:37:49.731Z,10.27
2018-05-31T20:43:54.277Z,10.80
2018-05-31T20:49:59.408Z,11.60
2018-05-31T20:56:03.781Z,11.87
2018-05-31T21:02:08.128Z,10.87
2018-05-31T21:08:12.489Z,11.90
2018-05-31T21:14:17.613Z,12.30
2018-05-31T21:20:22.052Z,13.00
2018-05-31T21:26:26.408Z,10.80
2018-05-31T21:32:30.788Z,11.17
2018-05-31T21:38:35.150Z,10.90
2018-05-31T21:44:39.526Z,11.47
2018-05-31T21:50:43.875Z,11.33
2018-05-31T21:56:48.292Z,11.90
2018-05-31T22:02:53.560Z,11.70
2018-05-31T22:08:57.912Z,13.07
2018-05-31T22:15:02.269Z,11.17
2018-05-31T22:21:06.631Z,11.80
2018-05-31T22:27:11.749Z,12.13
2018-05-31T22:33:16.103Z,12.77
2018-05-31T22:39:21.240Z,12.87
2018-05-31T22:45:25.589Z,11.73
2018-05-31T22:51:29.985Z,13.60
2018-05-31T22:57:34.333Z,13.37
2018-05-31T23:03:38.658Z,12.87
2018-05-31T23:09:43.046Z,12.77
2018-05-31T23:15:48.182Z,12.70
2018-05-31T23:34:57.591Z,12.23
2018-05-31T23:41:02.720Z,14.40
2018-05-31T23:47:07.076Z,14.13
2018-05-31T23:53:11.426Z,12.50
2018-05-31T23:59:16.609Z,15.40
